createdAt,value
2022-11-22T05:00:58.566Z,0.80
2022-11-22T05:01:58.495Z,0.50
2022-11-22T05:02:58.500Z,0.60
2022-11-22T05:03:58.497Z,0.80
2022-11-22T05:04:58.470Z,1.00
2022-11-22T05:05:58.500Z,0.70
2022-11-22T05:06:58.440Z,0.80
2022-11-22T05:07:58.439Z,0.60
2022-11-22T05:08:58.431Z,0.70
2022-11-22T05:09:58.417Z,0.80
2022-11-22T05:10:58.583Z,0.60
2022-11-22T05:11:58.352Z,0.50
2022-11-22T05:12:58.369Z,0.50
2022-11-22T05:14:06.384Z,1.00
2022-11-22T05:14:58.333Z,0.60
2022-11-22T05:15:58.295Z,0.80
2022-11-22T05:16:58.313Z,1.00
2022-11-22T05:17:58.273Z,0.80
2022-11-22T05:18:58.401Z,0.50
2022-11-22T05:19:58.260Z,0.70
2022-11-22T05:20:58.255Z,0.60
2022-11-22T05:21:58.230Z,0.70
2022-11-22T05:22:58.244Z,0.90
2022-11-22T05:23:58.231Z,0.70
2022-11-22T05:24:58.285Z,0.80
2022-11-22T05:25:58.176Z,0.60
2022-11-22T05:26:58.181Z,0.70
2022-11-22T05:27:58.147Z,0.80
2022-11-22T05:28:58.179Z,0.80
2022-11-22T05:29:58.129Z,0.70
2022-11-22T05:30:58.210Z,0.80
2022-11-22T05:31:58.115Z,0.60
2022-11-22T05:32:58.133Z,0.70
2022-11-22T05:33:58.088Z,0.60
2022-11-22T05:34:58.086Z,0.70
2022-11-22T05:35:58.039Z,0.90
2022-11-22T05:36:58.075Z,0.80
2022-11-22T05:37:58.016Z,0.90
2022-11-22T05:38:58.103Z,0.80
2022-11-22T05:39:57.994Z,0.80
2022-11-22T05:40:58.004Z,0.70
2022-11-22T05:41:57.976Z,0.80
2022-11-22T05:42:57.979Z,1.00
2022-11-22T05:43:57.953Z,0.80
2022-11-22T05:44:58.005Z,0.50
2022-11-22T05:45:57.924Z,0.90
2022-11-22T05:46:57.923Z,0.70
2022-11-22T05:47:57.891Z,1.20
2022-11-22T05:48:57.892Z,0.70
2022-11-22T05:49:57.862Z,1.50
2022-11-22T05:50:57.915Z,0.90
2022-11-22T05:51:57.832Z,0.80
2022-11-22T05:52:57.841Z,0.90
2022-11-22T05:53:57.811Z,1.30
2022-11-22T05:54:57.829Z,0.90
2022-11-22T05:55:57.800Z,1.10
2022-11-22T05:56:57.987Z,0.90
2022-11-22T05:57:57.760Z,0.80
2022-11-22T05:58:57.786Z,1.20
2022-11-22T05:59:57.741Z,1.60
2022-11-22T06:00:57.753Z,1.90
2022-11-22T06:01:57.755Z,1.40
2022-11-22T06:02:57.768Z,1.40
2022-11-22T06:03:57.686Z,1.20
2022-11-22T06:04:57.740Z,1.90
2022-11-22T06:05:57.657Z,1.10
2022-11-22T06:06:57.690Z,1.10
2022-11-22T06:07:57.665Z,0.80
2022-11-22T06:08:57.630Z,1.20
2022-11-22T06:09:57.653Z,1.20
2022-11-22T06:10:57.606Z,0.90
2022-11-22T06:11:57.573Z,0.80
2022-11-22T06:12:57.585Z,1.10
2022-11-22T06:13:57.558Z,1.00
2022-11-22T06:14:57.560Z,0.80
2022-11-22T06:15:57.563Z,0.80
2022-11-22T06:16:57.534Z,1.10
2022-11-22T06:17:57.493Z,1.10
2022-11-22T06:18:57.511Z,0.90
2022-11-22T06:20:01.349Z,0.70
2022-11-22T06:20:58.543Z,0.80
2022-11-22T06:21:57.442Z,0.80
2022-11-22T06:22:57.492Z,1.00
2022-11-22T06:23:57.429Z,0.90
2022-11-22T06:24:57.427Z,1.00
2022-11-22T06:25:57.415Z,0.80
2022-11-22T06:26:57.452Z,0.90
2022-11-22T06:27:57.374Z,0.70
2022-11-22T06:28:57.379Z,0.70
2022-11-22T06:29:57.352Z,0.60
2022-11-22T06:30:57.367Z,0.80
2022-11-22T06:32:03.180Z,0.90
2022-11-22T06:32:58.381Z,0.80
2022-11-22T06:33:57.304Z,1.00
2022-11-22T06:34:57.299Z,0.70
2022-11-22T06:35:57.268Z,0.80
2022-11-22T06:36:57.361Z,0.70
2022-11-22T06:38:00.629Z,1.00
2022-11-22T06:38:57.289Z,1.10
2022-11-22T06:39:57.322Z,0.70
2022-11-22T06:40:57.236Z,0.70
2022-11-22T06:41:57.193Z,1.20
2022-11-22T06:42:57.198Z,1.00
2022-11-22T06:43:57.167Z,1.00
2022-11-22T06:44:57.185Z,0.80
2022-11-22T06:45:57.301Z,1.00
2022-11-22T06:46:57.159Z,0.70
2022-11-22T06:47:57.126Z,0.80
2022-11-22T06:48:57.142Z,0.70
2022-11-22T06:49:57.101Z,0.90
2022-11-22T06:50:57.118Z,1.00
2022-11-22T06:51:57.114Z,1.00
2022-11-22T06:52:57.082Z,1.10
2022-11-22T06:53:57.042Z,0.70
2022-11-22T06:54:57.050Z,1.00
2022-11-22T06:56:01.229Z,0.90
2022-11-22T06:56:57.134Z,1.00
2022-11-22T06:57:57.000Z,1.00
2022-11-22T06:58:57.003Z,0.70
2022-11-22T06:59:56.960Z,1.30
2022-11-22T07:00:57.007Z,0.90
2022-11-22T07:02:01.417Z,0.90
2022-11-22T07:02:57.948Z,0.60
2022-11-22T07:03:56.921Z,0.90
2022-11-22T07:05:23.789Z,0.60
2022-11-22T08:24:11.293Z,1.30
2022-11-22T08:25:11.161Z,1.10
2022-11-22T08:26:11.122Z,1.30
2022-11-22T08:27:11.136Z,1.50
2022-11-22T08:28:11.098Z,1.40
2022-11-22T08:29:13.852Z,1.30
2022-11-22T08:30:11.946Z,1.20
2022-11-22T08:31:11.071Z,2.20
2022-11-22T08:32:11.045Z,1.50
2022-11-22T08:33:11.054Z,1.80
2022-11-22T08:34:11.020Z,0.90
2022-11-22T08:35:11.051Z,1.00
2022-11-22T08:36:11.099Z,0.90
2022-11-22T08:37:11.046Z,0.60
2022-11-22T08:38:11.007Z,0.90
2022-11-22T08:39:10.968Z,0.90
2022-11-22T08:40:10.955Z,0.70
2022-11-22T08:41:10.964Z,1.20
2022-11-22T08:42:10.932Z,1.00
2022-11-22T08:43:11.023Z,1.40
2022-11-22T08:44:10.896Z,1.40
2022-11-22T08:45:10.897Z,1.30
2022-11-22T08:46:10.894Z,3.10
2022-11-22T08:47:10.876Z,1.50
2022-11-22T08:48:10.837Z,1.40
2022-11-22T08:51:34.070Z,1.10
2022-11-22T08:52:30.920Z,1.30
2022-11-22T08:53:30.931Z,1.60
2022-11-22T08:54:34.972Z,1.70
2022-11-22T08:55:31.919Z,1.70
2022-11-22T08:56:30.871Z,1.70
2022-11-22T08:57:31.099Z,1.50
2022-11-22T08:58:30.846Z,1.60
2022-11-22T08:59:31.037Z,1.80
2022-11-22T09:00:33.505Z,1.80
2022-11-22T09:01:30.855Z,1.80
2022-11-22T09:02:30.801Z,3.00
2022-11-22T09:03:30.868Z,2.10
2022-11-22T09:04:30.780Z,2.30
2022-11-22T09:05:30.905Z,2.40
2022-11-22T09:08:35.924Z,1.80
2022-11-22T09:09:37.998Z,1.70
2022-11-22T09:10:31.738Z,1.80
2022-11-22T09:11:30.696Z,1.40
2022-11-22T09:12:30.696Z,1.70
2022-11-22T09:13:30.714Z,1.70
2022-11-22T09:14:30.815Z,1.50
2022-11-22T09:15:30.652Z,1.30
2022-11-22T09:16:30.623Z,1.90
2022-11-22T09:17:30.624Z,1.60
2022-11-22T09:18:30.596Z,1.60
2022-11-22T09:19:30.826Z,1.70
2022-11-22T09:20:30.617Z,1.90
2022-11-22T09:21:30.590Z,1.70
2022-11-22T09:22:30.545Z,1.70
2022-11-22T09:23:30.553Z,1.40
2022-11-22T09:24:30.533Z,1.50
2022-11-22T09:25:30.522Z,1.60
2022-11-22T09:26:30.550Z,1.60
2022-11-22T09:27:30.501Z,1.10
2022-11-22T09:28:30.467Z,1.00
2022-11-22T09:29:30.652Z,0.90
2022-11-22T09:30:30.441Z,0.90
2022-11-22T09:31:30.458Z,1.00
2022-11-22T09:32:33.672Z,1.10
2022-11-22T09:33:30.420Z,0.70
2022-11-22T09:34:30.382Z,0.90
2022-11-22T09:35:30.400Z,1.00
2022-11-22T09:36:30.380Z,0.70
2022-11-22T09:37:30.369Z,1.30
2022-11-22T09:38:30.521Z,0.90
2022-11-22T09:39:30.547Z,0.90
2022-11-22T09:40:30.323Z,0.90
2022-11-22T09:41:30.338Z,1.10
2022-11-22T09:42:30.294Z,0.70
2022-11-22T09:43:30.314Z,0.90
2022-11-22T09:44:30.315Z,0.80
2022-11-22T09:45:30.273Z,0.80
2022-11-22T09:46:30.236Z,0.80
2022-11-22T09:47:30.258Z,0.90
2022-11-22T09:48:30.222Z,0.70
2022-11-22T09:49:30.576Z,1.00
2022-11-22T09:50:30.226Z,0.90
2022-11-22T09:51:30.206Z,0.70
2022-11-22T09:52:30.170Z,0.70
2022-11-22T09:53:30.174Z,0.90
2022-11-22T09:54:30.140Z,0.90
2022-11-22T09:55:30.148Z,0.50
2022-11-22T09:56:30.155Z,0.90
2022-11-22T09:57:30.124Z,0.70
2022-11-22T09:58:30.128Z,1.00
2022-11-22T09:59:30.242Z,0.60
2022-11-22T10:00:30.074Z,0.90
2022-11-22T10:01:30.166Z,0.90
2022-11-22T10:02:31.410Z,0.90
2022-11-22T10:03:31.074Z,0.80
2022-11-22T10:04:30.014Z,0.70
2022-11-22T10:05:30.088Z,0.70
2022-11-22T10:06:29.984Z,0.90
2022-11-22T10:07:30.096Z,1.40
2022-11-22T10:08:29.973Z,1.20
2022-11-22T10:09:30.361Z,1.30
2022-11-22T10:10:29.943Z,1.20
2022-11-22T10:11:36.087Z,1.40
2022-11-22T10:12:30.920Z,1.10
2022-11-22T10:13:29.976Z,1.10
2022-11-22T10:14:29.890Z,0.70
2022-11-22T10:15:29.891Z,0.80
2022-11-22T10:16:29.871Z,0.80
2022-11-22T10:17:29.888Z,1.20
2022-11-22T10:18:29.841Z,0.70
2022-11-22T10:19:30.140Z,0.60
2022-11-22T10:20:29.821Z,1.00
2022-11-22T10:21:29.829Z,0.80
2022-11-22T10:22:29.823Z,0.90
2022-11-22T10:23:29.838Z,0.80
2022-11-22T10:24:29.777Z,0.70
2022-11-22T10:25:29.980Z,1.00
2022-11-22T10:26:29.748Z,0.80
2022-11-22T10:27:29.768Z,0.80
2022-11-22T10:28:29.736Z,0.80
2022-11-22T10:29:30.199Z,0.60
2022-11-22T10:30:29.688Z,0.60
2022-11-22T10:31:29.768Z,0.80
2022-11-22T10:32:29.676Z,0.60
2022-11-22T10:33:29.684Z,0.70
2022-11-22T10:34:29.667Z,0.60
2022-11-22T10:35:29.656Z,0.70
2022-11-22T10:36:29.624Z,0.80
2022-11-22T10:37:29.824Z,0.50
2022-11-22T10:38:29.604Z,0.60
2022-11-22T10:39:34.224Z,0.70
2022-11-22T10:40:30.564Z,0.60
2022-11-22T10:41:29.595Z,0.70
2022-11-22T10:42:29.553Z,0.60
2022-11-22T10:43:29.622Z,0.70
2022-11-22T10:44:29.533Z,0.60
2022-11-22T10:45:29.543Z,0.40
2022-11-22T10:46:29.492Z,0.50
2022-11-22T10:47:34.209Z,0.60
2022-11-22T10:48:30.533Z,0.60
2022-11-22T10:49:29.670Z,0.50
2022-11-22T10:50:29.446Z,0.50
2022-11-22T10:51:29.453Z,0.40
2022-11-22T10:52:29.423Z,0.60
2022-11-22T10:53:29.442Z,0.60
2022-11-22T10:54:29.431Z,0.60
2022-11-22T10:55:29.410Z,0.60
2022-11-22T10:56:29.367Z,0.60
2022-11-22T10:57:29.370Z,0.70
2022-11-22T10:58:29.350Z,0.70
2022-11-22T10:59:29.562Z,0.90
2022-11-22T11:00:29.331Z,0.90
2022-11-22T11:01:29.415Z,0.70
2022-11-22T11:02:29.320Z,0.50
2022-11-22T11:03:29.301Z,0.50
2022-11-22T11:04:29.489Z,0.60
2022-11-22T11:05:29.259Z,0.70
2022-11-22T11:06:43.523Z,0.50
2022-11-22T11:07:30.363Z,0.90
2022-11-22T11:08:54.176Z,0.60
2022-11-22T11:10:34.577Z,0.60
2022-11-22T11:11:29.175Z,0.50
2022-11-22T11:12:29.196Z,0.60
2022-11-22T11:13:29.146Z,0.50
2022-11-22T11:14:36.240Z,0.60
2022-11-22T11:15:31.789Z,0.60
2022-11-22T11:16:29.142Z,0.40
2022-11-22T11:17:32.889Z,0.70
2022-11-22T11:18:29.114Z,0.50
2022-11-22T11:19:29.080Z,0.50
2022-11-22T11:20:29.147Z,0.50
2022-11-22T11:21:29.047Z,0.50
2022-11-22T11:22:58.758Z,0.40
2022-11-22T11:23:30.019Z,0.40
2022-11-22T11:24:29.251Z,0.40
2022-11-22T11:25:29.027Z,0.50
2022-11-22T11:26:29.124Z,0.40
2022-11-22T11:27:29.074Z,0.30
2022-11-22T11:28:28.993Z,0.40
2022-11-22T11:29:32.110Z,0.30
2022-11-22T11:30:29.976Z,0.40
2022-11-22T11:31:28.919Z,0.40
2022-11-22T11:32:29.096Z,0.40
2022-11-22T11:33:28.881Z,0.50
2022-11-22T11:34:29.156Z,0.50
2022-11-22T11:35:28.929Z,0.30
2022-11-22T11:36:28.857Z,0.40
2022-11-22T11:37:28.846Z,0.40
2022-11-22T11:38:28.863Z,0.50
2022-11-22T11:39:29.046Z,0.80
2022-11-22T11:40:28.845Z,0.40
2022-11-22T11:41:29.023Z,0.70
2022-11-22T11:42:28.818Z,0.70
2022-11-22T11:43:28.764Z,0.50
2022-11-22T11:44:29.139Z,0.50
2022-11-22T11:45:28.750Z,0.30
2022-11-22T11:46:28.852Z,0.50
2022-11-22T11:47:28.783Z,0.80
2022-11-22T11:48:28.701Z,0.40
2022-11-22T11:49:28.973Z,0.40
2022-11-22T11:50:28.673Z,0.50
2022-11-22T11:51:28.644Z,0.60
2022-11-22T11:52:28.842Z,0.40
2022-11-22T11:53:28.792Z,0.40
2022-11-22T11:54:28.678Z,0.60
2022-11-22T11:55:28.610Z,0.60
2022-11-22T11:56:28.625Z,0.60
2022-11-22T11:57:28.729Z,0.70
2022-11-22T11:58:28.591Z,0.50
2022-11-22T11:59:28.764Z,0.40
2022-11-22T12:00:28.550Z,0.60
2022-11-22T12:01:28.520Z,0.70
2022-11-22T12:02:28.606Z,0.90
2022-11-22T12:03:28.522Z,0.60
2022-11-22T12:04:28.720Z,0.40
2022-11-22T12:05:28.532Z,0.40
2022-11-22T12:06:28.611Z,0.60
2022-11-22T12:07:28.549Z,0.30
2022-11-22T12:08:28.448Z,0.30
2022-11-22T12:09:28.970Z,0.40
2022-11-22T12:10:28.427Z,0.80
2022-11-22T12:11:28.429Z,0.40
2022-11-22T12:12:28.420Z,0.60
2022-11-22T12:13:28.365Z,0.50
2022-11-22T12:14:42.972Z,0.40
2022-11-22T12:15:29.387Z,0.60
2022-11-22T12:16:28.349Z,0.60
2022-11-22T12:17:28.549Z,0.30
2022-11-22T12:18:28.316Z,0.40
2022-11-22T12:19:28.327Z,0.60
2022-11-22T12:20:28.296Z,0.50
2022-11-22T12:21:28.387Z,0.30
2022-11-22T12:22:48.186Z,0.50
2022-11-22T12:23:29.439Z,0.50
2022-11-22T12:24:52.342Z,0.80
2022-11-22T12:25:33.215Z,0.50
2022-11-22T12:26:28.216Z,0.40
2022-11-22T12:27:28.450Z,0.50
2022-11-22T12:28:28.238Z,0.40
2022-11-22T12:29:28.415Z,0.60
2022-11-22T12:30:28.164Z,0.30
2022-11-22T12:31:28.153Z,0.30
2022-11-22T12:32:28.156Z,0.40
2022-11-22T12:33:28.291Z,0.40
2022-11-22T12:34:35.213Z,0.70
2022-11-22T12:35:35.107Z,0.40
2022-11-22T12:36:35.117Z,0.40
2022-11-22T12:37:35.083Z,0.40
2022-11-22T12:38:35.123Z,0.30
2022-11-22T12:39:28.031Z,0.40
2022-11-22T12:40:28.819Z,0.50
2022-11-22T12:41:28.008Z,0.60
2022-11-22T12:42:28.029Z,0.50
2022-11-22T12:43:27.984Z,0.30
2022-11-22T12:44:28.605Z,0.50
2022-11-22T12:45:28.018Z,0.70
2022-11-22T12:46:28.022Z,0.50
2022-11-22T12:47:27.947Z,0.40
2022-11-22T12:48:28.182Z,0.40
2022-11-22T12:49:27.918Z,0.40
2022-11-22T12:50:27.938Z,0.40
2022-11-22T12:51:27.890Z,0.50
2022-11-22T12:52:28.119Z,0.50
2022-11-22T12:53:27.890Z,0.50
2022-11-22T12:54:28.364Z,0.60
2022-11-22T12:55:27.851Z,0.40
2022-11-22T12:56:33.016Z,0.50
2022-11-22T12:57:28.845Z,0.40
2022-11-22T12:58:27.854Z,0.30
2022-11-22T12:59:27.800Z,0.30
2022-11-22T13:00:27.796Z,0.30
2022-11-22T13:01:27.757Z,0.40
2022-11-22T13:02:27.825Z,0.60
2022-11-22T13:03:27.736Z,0.40
2022-11-22T13:04:27.756Z,0.80
2022-11-22T13:05:27.730Z,0.30
2022-11-22T13:06:27.724Z,0.50
2022-11-22T13:07:27.743Z,0.40
2022-11-22T13:08:27.779Z,0.40
2022-11-22T13:09:27.665Z,0.40
2022-11-22T13:10:27.716Z,0.40
2022-11-22T13:11:27.642Z,0.50
2022-11-22T13:12:27.654Z,0.30
2022-11-22T13:13:27.634Z,0.70
2022-11-22T13:14:27.719Z,0.40
2022-11-22T13:15:27.606Z,0.40
2022-11-22T13:16:27.626Z,0.40
2022-11-22T13:17:27.565Z,0.30
2022-11-22T13:18:27.592Z,0.60
2022-11-22T13:19:27.622Z,0.50
2022-11-22T13:20:27.621Z,0.40
2022-11-22T13:21:27.569Z,0.50
2022-11-22T13:22:27.510Z,0.50
2022-11-22T13:23:27.530Z,0.50
2022-11-22T13:24:27.574Z,0.40
2022-11-22T13:25:27.458Z,0.50
2022-11-22T13:26:27.525Z,0.40
2022-11-22T13:27:27.449Z,0.40
2022-11-22T13:28:27.449Z,0.50
2022-11-22T13:29:27.439Z,0.40
2022-11-22T13:30:27.488Z,0.40
2022-11-22T13:31:27.402Z,0.60
2022-11-22T13:32:27.388Z,0.30
2022-11-22T13:33:27.366Z,0.60
2022-11-22T13:34:27.372Z,0.40
2022-11-22T13:35:27.338Z,0.50
2022-11-22T13:36:27.378Z,0.60
2022-11-22T13:37:27.359Z,0.50
2022-11-22T13:38:27.328Z,0.60
2022-11-22T13:39:27.301Z,0.60
2022-11-22T13:40:27.328Z,0.60
2022-11-22T13:41:27.258Z,0.50
2022-11-22T13:42:27.394Z,0.40
2022-11-22T13:43:27.270Z,0.60
2022-11-22T13:44:27.236Z,0.30
2022-11-22T13:45:27.225Z,0.40
2022-11-22T13:46:27.216Z,0.60
2022-11-22T13:47:27.184Z,0.30
2022-11-22T13:48:27.321Z,0.50
2022-11-22T13:49:30.193Z,0.50
2022-11-22T13:50:28.165Z,0.40
2022-11-22T13:51:27.154Z,0.40
2022-11-22T13:52:27.190Z,0.50
2022-11-22T13:53:27.162Z,0.50
2022-11-22T13:54:27.272Z,0.40
2022-11-22T13:55:27.109Z,0.40
2022-11-22T13:56:27.106Z,0.40
2022-11-22T13:57:27.137Z,0.40
2022-11-22T13:58:27.117Z,0.50
2022-11-22T13:59:27.049Z,0.40
2022-11-22T14:00:27.044Z,0.60
2022-11-22T14:01:27.062Z,0.70
2022-11-22T14:02:27.041Z,0.40
2022-11-22T14:03:27.063Z,0.50
2022-11-22T14:04:27.013Z,0.30
2022-11-22T14:05:26.989Z,0.50
2022-11-22T14:06:27.022Z,0.50
2022-11-22T14:07:26.965Z,0.30
2022-11-22T14:08:26.942Z,0.50
2022-11-22T14:09:26.971Z,0.40
2022-11-22T14:10:26.950Z,0.40
2022-11-22T14:11:26.890Z,0.70
2022-11-22T14:12:26.900Z,0.40
2022-11-22T14:13:26.862Z,0.40
2022-11-22T14:14:26.905Z,0.30
2022-11-22T14:15:26.869Z,0.50
2022-11-22T14:16:26.910Z,0.30
2022-11-22T14:17:26.864Z,0.40
2022-11-22T14:18:26.815Z,0.40
2022-11-22T14:19:26.808Z,0.40
2022-11-22T14:20:26.821Z,0.30
2022-11-22T14:21:26.769Z,0.40
2022-11-22T14:22:26.769Z,0.40
2022-11-22T14:23:26.781Z,0.40
2022-11-22T14:24:26.727Z,0.40
2022-11-22T14:25:26.707Z,0.40
2022-11-22T14:26:26.761Z,0.50
2022-11-22T14:27:26.679Z,0.30
2022-11-22T14:28:26.676Z,0.40
2022-11-22T14:29:33.676Z,0.40
2022-11-22T14:30:33.665Z,0.30
2022-11-22T14:31:33.863Z,0.50
2022-11-22T14:32:33.669Z,0.40
2022-11-22T14:33:33.626Z,0.40
2022-11-22T14:34:26.633Z,0.40
2022-11-22T14:35:29.797Z,0.30
2022-11-22T14:36:26.757Z,0.40
2022-11-22T14:37:26.604Z,0.60
2022-11-22T14:38:28.920Z,0.40
2022-11-22T14:39:32.248Z,0.50
2022-11-22T14:40:27.548Z,0.50
2022-11-22T14:41:26.605Z,0.30
2022-11-22T14:42:26.514Z,0.40
2022-11-22T14:43:26.561Z,0.40
2022-11-22T14:44:26.573Z,0.50
2022-11-22T14:45:26.455Z,0.40
2022-11-22T14:46:51.577Z,0.60
2022-11-22T14:47:27.423Z,0.50
2022-11-22T14:48:26.451Z,0.50
2022-11-22T14:49:26.620Z,0.40
2022-11-22T14:50:26.532Z,0.40
2022-11-22T14:51:31.966Z,0.60
2022-11-22T14:52:27.389Z,0.30
2022-11-22T14:53:26.352Z,0.40
2022-11-22T14:54:26.350Z,0.50
2022-11-22T14:55:26.381Z,0.50
2022-11-22T14:56:26.309Z,0.40
2022-11-22T14:57:26.338Z,0.50
2022-11-22T14:58:26.281Z,0.30
2022-11-22T14:59:26.292Z,0.50
2022-11-22T15:00:26.253Z,0.70
2022-11-22T15:01:26.383Z,0.50
2022-11-22T15:02:26.278Z,0.50
2022-11-22T15:03:26.259Z,0.40
2022-11-22T15:09:10.289Z,0.50
2022-11-22T15:09:10.684Z,0.50
2022-11-22T15:09:17.239Z,0.40
2022-11-22T15:09:19.924Z,0.60
2022-11-22T15:09:20.505Z,0.40
2022-11-22T15:09:45.066Z,0.60
2022-11-22T15:10:27.156Z,0.60
2022-11-22T15:11:26.128Z,0.50
2022-11-22T15:12:26.167Z,0.60
2022-11-22T15:13:26.153Z,0.40
2022-11-22T15:14:26.084Z,0.80
2022-11-22T15:57:27.035Z,0.60
2022-11-22T15:58:25.527Z,0.80
2022-11-22T15:59:25.592Z,0.80
2022-11-22T16:00:25.509Z,0.70
2022-11-22T16:01:25.573Z,0.60
2022-11-22T16:02:25.516Z,0.80
2022-11-22T16:03:25.454Z,0.90
2022-11-22T16:04:25.425Z,1.90
2022-11-22T16:06:04.368Z,2.10
2022-11-22T16:06:26.407Z,1.60
2022-11-22T16:07:25.479Z,1.90
2022-11-22T16:08:31.040Z,1.60
2022-11-22T16:09:26.410Z,1.30
2022-11-22T16:10:25.363Z,1.40
2022-11-22T16:11:25.413Z,1.00
2022-11-22T16:12:25.335Z,1.20
2022-11-22T16:13:25.412Z,1.10
2022-11-22T16:14:25.403Z,1.30
2022-11-22T16:15:25.313Z,0.90
2022-11-22T16:16:25.271Z,1.00
2022-11-22T16:17:25.278Z,0.80
2022-11-22T16:18:25.316Z,0.80
2022-11-22T16:19:33.055Z,0.80
2022-11-22T16:20:32.237Z,0.70
2022-11-22T16:21:32.750Z,0.60
2022-11-22T16:22:32.719Z,0.70
2022-11-22T16:23:32.720Z,0.60
2022-11-22T16:24:32.216Z,0.70
2022-11-22T16:25:32.273Z,0.50
2022-11-22T16:26:25.247Z,0.80
2022-11-22T16:27:25.153Z,0.60
2022-11-22T16:28:25.123Z,0.60
2022-11-22T16:29:25.135Z,0.60
2022-11-22T16:30:25.092Z,0.80
2022-11-22T16:31:25.178Z,0.60
2022-11-22T16:32:25.072Z,0.60
2022-11-22T16:33:25.102Z,0.70
2022-11-22T16:34:25.045Z,0.50
2022-11-22T16:35:28.980Z,0.60
2022-11-22T16:36:25.020Z,0.40
2022-11-22T16:37:25.090Z,0.60
2022-11-22T16:38:24.999Z,0.50
2022-11-22T16:39:25.031Z,0.50
2022-11-22T16:40:25.380Z,0.50
2022-11-22T16:41:24.977Z,0.60
2022-11-22T16:42:25.001Z,0.40
2022-11-22T16:43:24.980Z,0.70
2022-11-22T16:44:24.927Z,0.50
2022-11-22T16:45:24.938Z,0.40
2022-11-22T16:46:25.098Z,0.50
2022-11-22T16:47:24.961Z,0.60
2022-11-22T16:48:31.865Z,0.40
2022-11-22T16:49:25.866Z,0.50
2022-11-22T16:50:24.846Z,0.70
2022-11-22T16:51:24.878Z,0.80
2022-11-22T16:52:24.875Z,1.30
2022-11-22T16:53:24.849Z,1.00
2022-11-22T16:54:24.796Z,1.70
2022-11-22T16:55:24.815Z,1.30
2022-11-22T16:56:24.768Z,1.20
2022-11-22T16:57:24.774Z,1.30
2022-11-22T16:58:24.809Z,1.30
2022-11-22T16:59:24.744Z,1.40
2022-11-22T17:00:24.726Z,1.00
2022-11-22T17:01:24.766Z,1.30
2022-11-22T17:02:24.775Z,1.10
2022-11-22T17:03:24.721Z,1.00
2022-11-22T17:04:25.236Z,0.90
2022-11-22T17:05:24.683Z,0.90
2022-11-22T17:06:24.648Z,0.80
2022-11-22T17:07:24.696Z,0.90
2022-11-22T17:08:24.621Z,0.90
2022-11-22T17:09:24.622Z,1.30
2022-11-22T17:10:24.672Z,0.70
2022-11-22T17:11:24.592Z,0.70
2022-11-22T17:12:29.073Z,1.00
2022-11-22T17:13:25.579Z,0.90
2022-11-22T17:14:31.965Z,1.10
2022-11-22T17:15:24.545Z,0.80
2022-11-22T17:16:26.202Z,0.80
2022-11-22T17:17:24.523Z,1.00
2022-11-22T17:18:24.483Z,0.90
2022-11-22T17:19:51.590Z,1.10
2022-11-22T17:20:25.468Z,0.90
2022-11-22T17:21:24.473Z,0.90
2022-11-22T17:22:24.502Z,1.30
2022-11-22T17:23:24.461Z,0.80
2022-11-22T17:24:24.413Z,1.20
2022-11-22T17:25:24.421Z,1.00
2022-11-22T17:26:24.491Z,0.80
2022-11-22T17:27:24.426Z,1.10
2022-11-22T17:28:24.580Z,1.00
2022-11-22T17:29:49.813Z,1.00
2022-11-22T17:30:25.334Z,0.80
2022-11-22T17:31:24.347Z,0.90
2022-11-22T17:32:24.309Z,0.70
2022-11-22T17:33:24.318Z,0.90
2022-11-22T17:34:24.339Z,1.20
2022-11-22T17:35:24.299Z,1.00
2022-11-22T17:36:24.280Z,0.80
2022-11-22T17:37:24.258Z,1.10
2022-11-22T17:38:24.240Z,0.70
2022-11-22T17:39:24.239Z,0.90
2022-11-22T17:40:24.527Z,1.00
2022-11-22T17:41:24.260Z,0.90
2022-11-22T17:42:24.177Z,1.20
2022-11-22T17:43:24.294Z,0.90
2022-11-22T17:44:24.188Z,0.80
2022-11-22T17:45:24.179Z,1.00
2022-11-22T17:46:24.157Z,1.00
2022-11-22T17:47:24.178Z,0.80
2022-11-22T17:48:24.103Z,0.80
2022-11-22T17:49:24.113Z,0.80
2022-11-22T17:50:24.075Z,0.90
2022-11-22T17:51:24.126Z,1.30
2022-11-22T17:52:24.098Z,0.90
2022-11-22T17:53:24.047Z,1.20
2022-11-22T17:54:24.022Z,1.20
2022-11-22T17:55:26.353Z,0.90
2022-11-22T17:56:25.033Z,0.80
2022-11-22T17:57:24.023Z,1.00
2022-11-22T17:58:23.990Z,1.50
2022-11-22T17:59:24.029Z,0.70
2022-11-22T18:00:29.652Z,0.90
2022-11-22T18:01:25.188Z,0.80
2022-11-22T18:02:23.927Z,0.90
2022-11-22T18:03:24.114Z,0.70
2022-11-22T18:04:23.900Z,0.50
2022-11-22T18:05:23.889Z,0.60
2022-11-22T18:06:23.872Z,0.70
2022-11-22T18:07:23.986Z,0.70
2022-11-22T18:08:23.954Z,0.70
2022-11-22T18:09:23.844Z,0.90
2022-11-22T18:10:23.902Z,0.90
2022-11-22T18:11:23.819Z,0.60
2022-11-22T18:12:23.811Z,0.80
2022-11-22T18:13:23.846Z,1.10
2022-11-22T18:14:23.859Z,1.00
2022-11-22T18:15:23.770Z,0.80
2022-11-22T18:16:23.871Z,0.80
2022-11-22T18:17:23.747Z,0.50
2022-11-22T18:18:54.671Z,0.60
2022-11-22T18:19:24.807Z,0.70
2022-11-22T18:20:23.708Z,0.60
2022-11-22T18:21:23.928Z,0.60
2022-11-22T18:22:23.658Z,0.60
2022-11-22T18:23:23.860Z,0.50
2022-11-22T18:24:23.635Z,0.80
2022-11-22T18:25:23.647Z,0.70
2022-11-22T18:26:38.885Z,0.90
2022-11-22T18:27:24.688Z,0.60
2022-11-22T18:28:23.583Z,0.60
2022-11-22T18:29:42.645Z,0.50
2022-11-22T18:30:24.554Z,1.00
2022-11-22T18:31:23.610Z,0.70
2022-11-22T18:32:23.547Z,0.60
2022-11-22T18:33:23.637Z,0.80
2022-11-22T18:34:23.513Z,0.50
2022-11-22T18:35:23.523Z,0.70
2022-11-22T18:36:53.454Z,1.30
2022-11-22T18:37:24.482Z,1.00
2022-11-22T18:38:23.463Z,0.70
2022-11-22T18:39:23.512Z,0.80
2022-11-22T18:40:23.480Z,0.60
2022-11-22T18:41:23.438Z,0.70
2022-11-22T18:42:23.509Z,0.80
2022-11-22T18:43:23.440Z,0.90
2022-11-22T18:44:23.500Z,0.60
2022-11-22T18:45:23.452Z,1.20
2022-11-22T18:46:23.340Z,0.70
2022-11-22T18:47:23.412Z,0.60
2022-11-22T18:48:23.317Z,0.80
2022-11-22T18:49:23.352Z,0.80
2022-11-22T18:50:23.290Z,0.80
2022-11-22T18:51:23.604Z,0.60
2022-11-22T18:52:23.289Z,1.20
2022-11-22T18:53:23.289Z,0.70
2022-11-22T18:54:23.241Z,1.00
2022-11-22T18:55:23.239Z,0.90
2022-11-22T18:56:23.235Z,0.60
2022-11-22T18:57:24.019Z,1.00
2022-11-22T18:58:23.209Z,1.00
2022-11-22T18:59:23.193Z,1.00
2022-11-22T19:00:23.239Z,1.10
2022-11-22T19:01:23.226Z,0.80
2022-11-22T19:02:23.149Z,1.10
2022-11-22T19:03:23.175Z,0.80
2022-11-22T19:04:23.143Z,0.70
2022-11-22T19:05:24.609Z,0.70
2022-11-22T19:06:23.109Z,0.60
2022-11-22T19:07:23.146Z,0.90
2022-11-22T19:08:23.085Z,0.90
2022-11-22T19:09:23.205Z,0.90
2022-11-22T19:10:23.402Z,1.10
2022-11-22T19:11:23.055Z,0.60
2022-11-22T19:12:23.237Z,0.60
2022-11-22T19:13:22.994Z,0.70
2022-11-22T19:14:23.127Z,0.60
2022-11-22T19:15:22.992Z,1.00
2022-11-22T19:16:23.020Z,0.70
2022-11-22T19:17:22.954Z,0.80
2022-11-22T19:18:23.032Z,1.00
2022-11-22T19:19:22.914Z,1.10
2022-11-22T19:20:47.764Z,0.90
2022-11-22T19:21:23.892Z,1.20
2022-11-22T19:22:22.971Z,0.80
2022-11-22T19:23:22.899Z,0.90
2022-11-22T19:24:22.955Z,1.30
2022-11-22T19:25:22.854Z,1.00
2022-11-22T19:26:22.863Z,0.90
2022-11-22T19:27:22.817Z,0.70
2022-11-22T19:28:22.851Z,0.90
2022-11-22T19:29:22.840Z,0.80
2022-11-22T19:30:23.025Z,1.10
2022-11-22T19:31:22.778Z,0.80
2022-11-22T19:32:22.789Z,0.60
2022-11-22T19:33:22.741Z,0.70
2022-11-22T19:34:22.768Z,1.00
2022-11-22T19:35:22.741Z,1.00
2022-11-22T19:36:25.350Z,1.00
2022-11-22T19:37:23.687Z,0.80
2022-11-22T19:38:22.697Z,1.10
2022-11-22T19:39:22.668Z,1.40
2022-11-22T19:40:22.759Z,1.10
2022-11-22T19:41:22.675Z,1.10
2022-11-22T19:42:22.724Z,1.10
2022-11-22T19:43:22.622Z,1.40
2022-11-22T19:44:22.616Z,1.10
2022-11-22T19:45:22.620Z,1.10
2022-11-22T19:46:22.605Z,1.30
2022-11-22T19:47:22.555Z,1.60
2022-11-22T19:48:22.685Z,1.40
2022-11-22T19:49:22.577Z,1.30
2022-11-22T19:50:22.558Z,1.40
2022-11-22T19:51:22.519Z,1.40
2022-11-22T19:52:22.535Z,1.20
2022-11-22T19:53:22.494Z,1.30
2022-11-22T19:54:22.923Z,1.50
2022-11-22T19:55:22.504Z,1.20
2022-11-22T19:56:22.521Z,1.40
2022-11-22T19:57:22.439Z,1.60
2022-11-22T19:58:22.451Z,1.20
2022-11-22T19:59:22.412Z,1.40
2022-11-22T20:00:23.061Z,1.10
2022-11-22T20:01:22.524Z,1.30
2022-11-22T20:02:22.394Z,1.60
2022-11-22T20:03:22.383Z,1.10
2022-11-22T20:04:22.381Z,1.40
2022-11-22T20:05:22.339Z,1.30
2022-11-22T20:06:22.439Z,1.30
2022-11-22T20:07:22.372Z,1.10
2022-11-22T20:08:22.460Z,1.20
2022-11-22T20:09:22.294Z,1.40
2022-11-22T20:10:22.327Z,1.30
2022-11-22T20:11:22.309Z,1.40
2022-11-22T20:12:22.390Z,1.30
2022-11-22T20:13:22.241Z,1.30
2022-11-22T20:14:22.250Z,1.20
2022-11-22T20:15:22.211Z,1.40
2022-11-22T20:16:22.238Z,1.40
2022-11-22T20:17:22.210Z,1.30
2022-11-22T20:18:22.284Z,1.10
2022-11-22T20:19:22.180Z,1.50
2022-11-22T20:20:22.168Z,1.10
2022-11-22T20:21:22.667Z,1.20
2022-11-22T20:22:22.180Z,1.20
2022-11-22T20:23:22.114Z,1.60
2022-11-22T20:24:22.166Z,1.50